createdAt,value
2023-08-09T00:01:52.567Z,82539.31
2023-08-09T00:04:25.997Z,82538.06
2023-08-09T00:07:03.022Z,82535.28
2023-08-09T00:09:36.943Z,82533.19
2023-08-09T00:12:10.620Z,82540.50
2023-08-09T00:14:43.940Z,82545.84
2023-08-09T00:17:17.472Z,82556.50
2023-08-09T00:19:51.416Z,82563.84
2023-08-09T00:22:29.948Z,82571.81
2023-08-09T00:25:03.442Z,82566.47
2023-08-09T00:27:40.320Z,82567.84
2023-08-09T00:30:14.796Z,82574.44
2023-08-09T00:32:57.488Z,82580.44
2023-08-09T00:35:30.945Z,82574.63
2023-08-09T00:38:07.635Z,82577.41
2023-08-09T00:40:41.025Z,82577.94
2023-08-09T00:43:17.649Z,82583.84
2023-08-09T00:45:51.479Z,82585.16
2023-08-09T00:48:27.206Z,82584.56
2023-08-09T00:51:01.105Z,82590.72
2023-08-09T00:53:43.026Z,82591.91
2023-08-09T00:56:28.125Z,82597.88
2023-08-09T00:59:04.574Z,82589.97
2023-08-09T01:01:39.855Z,82596.78
2023-08-09T01:04:13.698Z,82606.56
2023-08-09T01:06:51.694Z,82611.34
2023-08-09T01:09:35.735Z,82607.97
2023-08-09T01:12:11.645Z,82617.97
2023-08-09T01:14:49.249Z,82623.38
2023-08-09T01:17:37.142Z,82625.34
2023-08-09T01:20:14.203Z,82630.03
2023-08-09T01:23:09.170Z,82641.44
2023-08-09T01:25:46.664Z,82644.66
2023-08-09T01:28:21.555Z,82662.75
2023-08-09T01:30:57.190Z,82634.22
2023-08-09T01:33:30.443Z,82675.66
2023-08-09T01:36:27.013Z,82674.25
2023-08-09T01:39:02.128Z,82694.78
2023-08-09T01:41:40.945Z,82690.03
2023-08-09T01:44:18.673Z,82712.53
2023-08-09T01:46:52.998Z,82737.91
2023-08-09T01:49:30.789Z,82727.34
2023-08-09T01:52:04.651Z,82737.22
2023-08-09T01:54:37.912Z,82743.50
2023-08-09T01:57:15.792Z,82750.13
2023-08-09T01:59:50.289Z,82758.16
2023-08-09T02:02:24.828Z,82763.44
2023-08-09T02:05:00.749Z,82770.19
2023-08-09T02:07:34.285Z,82773.25
2023-08-09T02:10:07.875Z,82783.38
2023-08-09T02:12:56.856Z,82798.50
2023-08-09T02:15:33.434Z,82801.25
2023-08-09T02:18:23.566Z,82804.66
2023-08-09T02:21:04.734Z,82819.38
2023-08-09T02:26:34.522Z,82825.91
2023-08-09T02:29:11.724Z,82833.88
2023-08-09T02:31:52.025Z,82821.75
2023-08-09T02:34:26.663Z,82843.88
2023-08-09T02:39:48.774Z,82850.50
2023-08-09T02:42:22.936Z,82845.75
2023-08-09T02:44:59.735Z,82855.81
2023-08-09T02:47:33.637Z,82873.00
2023-08-09T02:50:09.269Z,82871.72
2023-08-09T02:52:45.637Z,82862.25
2023-08-09T02:55:28.926Z,82857.47
2023-08-09T02:58:02.991Z,82872.38
2023-08-09T03:00:51.007Z,82880.47
2023-08-09T03:03:25.919Z,82876.31
2023-08-09T03:06:04.551Z,82881.03
2023-08-09T03:08:40.805Z,82883.19
2023-08-09T03:11:17.488Z,82883.94
2023-08-09T03:13:52.610Z,82887.09
2023-08-09T03:16:31.032Z,82903.31
2023-08-09T03:19:28.193Z,82889.28
2023-08-09T03:22:01.755Z,82919.25
2023-08-09T03:24:37.160Z,82926.50
2023-08-09T03:27:14.054Z,82919.38
2023-08-09T03:29:47.861Z,82909.06
2023-08-09T03:32:26.900Z,82915.31
2023-08-09T03:35:01.673Z,82916.25
2023-08-09T03:37:37.630Z,82922.16
2023-08-09T03:40:15.014Z,82920.31
2023-08-09T03:42:48.748Z,82923.66
2023-08-09T03:45:23.877Z,82926.34
2023-08-09T03:48:00.710Z,82922.97
2023-08-09T03:50:36.276Z,82929.63
2023-08-09T03:53:09.733Z,82926.94
2023-08-09T03:55:45.154Z,82933.00
2023-08-09T03:58:25.662Z,82944.38
2023-08-09T04:01:02.433Z,82935.75
2023-08-09T04:03:41.984Z,82943.13
2023-08-09T04:06:37.210Z,82930.94
2023-08-09T04:09:30.622Z,82922.25
2023-08-09T04:12:14.983Z,82923.81
2023-08-09T04:14:49.112Z,82925.25
2023-08-09T04:17:26.363Z,82930.59
2023-08-09T04:20:05.748Z,82931.34
2023-08-09T04:22:39.202Z,82927.31
2023-08-09T04:25:20.651Z,82933.34
2023-08-09T04:27:57.829Z,82929.38
2023-08-09T04:30:34.244Z,82918.09
2023-08-09T04:33:16.566Z,82922.09
2023-08-09T04:35:53.265Z,82912.69
2023-08-09T04:38:35.042Z,82918.81
2023-08-09T04:41:27.058Z,82911.00
2023-08-09T04:44:05.990Z,82915.69
2023-08-09T04:46:44.712Z,82912.41
2023-08-09T04:49:27.987Z,82911.75
2023-08-09T04:52:12.425Z,82912.50
2023-08-09T04:57:51.754Z,82911.13
2023-08-09T05:00:41.285Z,82907.81
2023-08-09T05:03:14.414Z,82911.91
2023-08-09T05:05:48.424Z,82905.13
2023-08-09T05:08:27.799Z,82907.31
2023-08-09T05:11:09.838Z,82905.06
2023-08-09T05:13:44.054Z,82899.72
2023-08-09T05:16:18.611Z,82897.19
2023-08-09T05:18:53.543Z,82899.19
2023-08-09T05:21:27.217Z,82900.66
2023-08-09T05:24:09.670Z,82894.16
2023-08-09T05:26:45.406Z,82895.47
2023-08-09T05:29:20.920Z,82886.22
2023-08-09T05:31:55.406Z,82896.25
2023-08-09T05:34:30.833Z,82894.19
2023-08-09T05:37:05.034Z,82895.66
2023-08-09T05:39:46.137Z,82899.00
2023-08-09T05:42:24.399Z,82906.56
2023-08-09T05:44:57.821Z,82901.75
2023-08-09T05:47:40.252Z,82911.09
2023-08-09T05:50:17.007Z,82905.69
2023-08-09T05:52:55.369Z,82911.63
2023-08-09T05:55:41.125Z,82910.84
2023-08-09T05:58:20.243Z,82914.94
2023-08-09T06:00:54.476Z,82916.31
2023-08-09T06:03:28.284Z,82902.81
2023-08-09T06:08:51.164Z,82901.06
2023-08-09T06:14:15.459Z,82903.88
2023-08-09T06:16:51.129Z,82908.66
2023-08-09T06:19:25.259Z,82907.28
2023-08-09T06:22:04.221Z,82912.59
2023-08-09T06:24:43.094Z,82913.84
2023-08-09T06:27:23.240Z,82918.41
2023-08-09T06:29:59.616Z,82903.72
2023-08-09T06:32:34.046Z,82909.19
2023-08-09T06:35:08.253Z,82904.50
2023-08-09T06:38:01.952Z,82908.56
2023-08-09T06:40:43.530Z,82901.00
2023-08-09T06:43:20.277Z,82903.66
2023-08-09T06:45:55.638Z,82896.88
2023-08-09T06:48:32.498Z,82904.59
2023-08-09T06:51:18.438Z,82914.50
2023-08-09T06:53:54.824Z,82910.41
2023-08-09T06:56:29.886Z,82913.75
2023-08-09T06:59:07.569Z,82907.25
2023-08-09T07:01:41.739Z,82908.06
2023-08-09T07:04:25.848Z,82912.03
2023-08-09T07:07:07.665Z,82910.69
2023-08-09T07:09:52.190Z,82918.69
2023-08-09T07:12:26.938Z,82912.13
2023-08-09T07:15:03.664Z,82914.69
2023-08-09T07:17:39.727Z,82915.34
2023-08-09T07:20:14.871Z,82915.41
2023-08-09T07:22:56.345Z,82918.78
2023-08-09T07:25:55.839Z,82920.84
2023-08-09T07:28:32.605Z,82914.16
2023-08-09T07:31:41.695Z,82910.75
2023-08-09T07:34:15.918Z,82912.03
2023-08-09T07:36:49.325Z,82914.03
2023-08-09T07:39:25.051Z,82912.69
2023-08-09T07:41:58.703Z,82910.75
2023-08-09T07:44:45.721Z,82912.03
2023-08-09T07:47:29.897Z,82915.34
2023-08-09T07:50:15.918Z,82912.03
2023-08-09T07:53:01.810Z,82910.09
2023-08-09T07:55:39.148Z,82914.16
2023-08-09T07:58:15.723Z,82916.84
2023-08-09T08:01:23.442Z,82915.44
2023-08-09T08:04:00.613Z,82921.53
2023-08-09T08:06:43.094Z,82924.19
2023-08-09T08:09:19.982Z,82918.78
2023-08-09T08:12:00.487Z,82923.47
2023-08-09T08:14:42.113Z,82917.47
2023-08-09T08:17:18.461Z,82912.13
2023-08-09T08:19:59.212Z,82912.19
2023-08-09T08:22:33.391Z,82908.81
2023-08-09T08:25:07.163Z,82907.47
2023-08-09T08:27:53.245Z,82918.88
2023-08-09T08:30:30.972Z,82916.94
2023-08-09T08:33:16.239Z,82916.91
2023-08-09T08:36:03.834Z,82915.59
2023-08-09T08:38:42.109Z,82914.38
2023-08-09T08:41:17.002Z,82907.56
2023-08-09T08:43:53.833Z,82910.97
2023-08-09T08:46:28.458Z,82920.31
2023-08-09T08:49:04.693Z,82919.72
2023-08-09T08:51:43.268Z,82919.59
2023-08-09T08:54:19.484Z,82929.69
2023-08-09T08:56:54.804Z,82923.00
2023-08-09T08:59:28.457Z,82931.78
2023-08-09T09:02:04.275Z,82932.50
2023-08-09T09:04:38.778Z,82938.50
2023-08-09T09:07:23.590Z,82935.06
2023-08-09T09:10:12.186Z,82934.41
2023-08-09T09:12:49.597Z,82937.78
2023-08-09T09:15:25.598Z,82947.72
2023-08-09T09:17:59.655Z,82942.41
2023-08-09T09:20:34.578Z,82942.34
2023-08-09T09:23:11.150Z,82940.94
2023-08-09T09:25:46.980Z,82930.31
2023-08-09T09:28:26.566Z,82928.28
2023-08-09T09:31:25.154Z,82938.31
2023-08-09T09:34:02.558Z,82930.25
2023-08-09T09:36:37.275Z,82935.56
2023-08-09T09:39:18.853Z,82934.97
2023-08-09T09:41:56.120Z,82936.31
2023-08-09T09:44:31.377Z,82924.94
2023-08-09T09:47:09.164Z,82944.91
2023-08-09T09:49:46.910Z,82940.16
2023-08-09T09:52:23.922Z,82948.28
2023-08-09T09:55:03.798Z,82953.56
2023-08-09T09:57:41.155Z,82943.47
2023-08-09T10:00:17.278Z,82939.44
2023-08-09T10:02:55.170Z,82944.78
2023-08-09T10:05:32.800Z,82944.84
2023-08-09T10:08:14.134Z,82940.84
2023-08-09T10:10:57.538Z,82938.84
2023-08-09T10:13:33.534Z,82939.50
2023-08-09T10:16:13.519Z,82943.53
2023-08-09T10:18:48.724Z,82946.91
2023-08-09T10:21:25.259Z,82939.56
2023-08-09T10:24:05.874Z,82940.88
2023-08-09T10:26:46.932Z,82932.81
2023-08-09T10:32:11.924Z,82939.59
2023-08-09T10:34:47.207Z,82934.91
2023-08-09T10:37:36.647Z,82940.16
2023-08-09T10:40:21.287Z,82940.88
2023-08-09T10:42:59.146Z,82930.81
2023-08-09T10:45:41.231Z,82931.50
2023-08-09T10:48:27.913Z,82932.84
2023-08-09T10:51:08.971Z,82932.84
2023-08-09T10:54:15.913Z,82932.81
2023-08-09T10:56:54.252Z,82935.50
2023-08-09T10:59:31.410Z,82940.16
2023-08-09T11:02:05.840Z,82940.84
2023-08-09T11:04:40.334Z,82945.53
2023-08-09T11:07:13.764Z,82944.16
2023-08-09T11:09:51.504Z,82950.81
2023-08-09T11:12:27.148Z,82950.19
2023-08-09T11:15:18.234Z,82951.44
2023-08-09T11:18:01.594Z,82960.13
2023-08-09T11:20:37.889Z,82958.91
2023-08-09T11:23:13.470Z,82961.53
2023-08-09T11:25:52.268Z,82958.09
2023-08-09T11:28:30.049Z,82956.81
2023-08-09T11:33:52.762Z,82962.13
2023-08-09T11:36:27.492Z,82964.13
2023-08-09T11:39:12.979Z,82960.84
2023-08-09T11:41:53.671Z,82963.53
2023-08-09T11:44:29.100Z,82965.47
2023-08-09T11:47:08.454Z,82966.19
2023-08-09T11:49:46.845Z,82970.81
2023-08-09T11:52:36.778Z,82970.16
2023-08-09T11:57:59.517Z,82974.16
2023-08-09T12:03:33.486Z,82965.47
2023-08-09T12:06:07.843Z,82970.72
2023-08-09T12:08:42.528Z,82978.78
2023-08-09T12:11:21.106Z,82979.44
2023-08-09T12:14:02.129Z,82980.75
2023-08-09T12:16:35.294Z,82978.75
2023-08-09T12:19:19.375Z,82968.66
2023-08-09T12:21:56.238Z,82975.34
2023-08-09T12:24:29.846Z,82971.31
2023-08-09T12:27:31.386Z,82967.91
2023-08-09T12:30:08.692Z,82977.25
2023-08-09T12:32:52.781Z,82969.94
2023-08-09T12:35:29.907Z,82981.34
2023-08-09T12:38:03.386Z,82987.31
2023-08-09T12:40:40.612Z,82982.59
2023-08-09T12:43:26.602Z,82993.97
2023-08-09T12:46:02.119Z,82994.78
2023-08-09T12:48:53.286Z,83003.66
2023-08-09T12:51:30.608Z,83010.00
2023-08-09T12:54:04.890Z,83007.13
2023-08-09T12:56:40.317Z,83009.00
2023-08-09T12:59:35.223Z,83008.97
2023-08-09T13:02:09.531Z,83011.03
2023-08-09T13:05:01.029Z,83001.16
2023-08-09T13:07:38.484Z,83002.84
2023-08-09T13:10:13.054Z,83013.69
2023-08-09T13:12:48.123Z,83015.50
2023-08-09T13:15:34.030Z,83017.66
2023-08-09T13:18:18.949Z,83017.63
2023-08-09T13:20:52.971Z,83023.41
2023-08-09T13:23:36.583Z,83022.72
2023-08-09T13:26:14.877Z,83028.63
2023-08-09T13:28:52.874Z,83033.94
2023-08-09T13:31:30.811Z,83036.63
2023-08-09T13:34:04.052Z,83038.25
2023-08-09T13:36:37.952Z,83039.56
2023-08-09T13:39:22.799Z,83044.16
2023-08-09T13:42:06.837Z,83037.56
2023-08-09T13:44:43.043Z,83045.38
2023-08-09T13:47:17.626Z,83041.53
2023-08-09T13:49:52.803Z,83054.28
2023-08-09T13:52:30.047Z,83051.59
2023-08-09T13:55:28.496Z,83055.16
2023-08-09T13:58:13.122Z,83053.72
2023-08-09T14:00:50.455Z,83063.13
2023-08-09T14:03:27.094Z,83060.59
2023-08-09T14:06:09.866Z,83066.50
2023-08-09T14:08:45.447Z,83069.38
2023-08-09T14:11:19.309Z,83067.94
2023-08-09T14:13:57.055Z,83067.44
2023-08-09T14:16:48.426Z,83063.13
2023-08-09T14:19:22.646Z,83058.31
2023-08-09T14:21:58.209Z,83063.81
2023-08-09T14:24:47.384Z,83070.00
2023-08-09T14:27:22.493Z,83063.13
2023-08-09T14:30:00.295Z,83064.44
2023-08-09T14:32:35.528Z,83069.81
2023-08-09T14:35:11.375Z,83068.56
2023-08-09T14:37:46.725Z,83067.84
2023-08-09T14:40:34.379Z,83068.47
2023-08-09T14:43:09.487Z,83062.47
2023-08-09T14:45:47.277Z,83067.63
2023-08-09T14:48:20.776Z,83062.78
2023-08-09T14:50:55.308Z,83075.47
2023-08-09T14:53:32.525Z,83068.19
2023-08-09T14:56:08.676Z,83073.44
2023-08-09T14:58:48.081Z,83078.72
2023-08-09T15:01:26.008Z,83072.00
2023-08-09T15:04:00.924Z,83075.97
2023-08-09T15:06:39.858Z,83075.97
2023-08-09T15:09:15.697Z,83066.06
2023-08-09T15:11:52.802Z,83077.38
2023-08-09T15:14:31.352Z,83070.13
2023-08-09T15:17:24.934Z,83084.72
2023-08-09T15:20:02.868Z,83082.72
2023-08-09T15:22:49.094Z,83078.91
2023-08-09T15:25:24.634Z,83083.81
2023-08-09T15:27:58.741Z,83084.41
2023-08-09T15:30:42.736Z,83093.69
2023-08-09T15:33:49.410Z,83090.84
2023-08-09T15:36:29.013Z,83089.56
2023-08-09T15:39:04.056Z,83072.88
2023-08-09T15:41:53.439Z,83077.66
2023-08-09T15:44:39.508Z,83086.16
2023-08-09T15:47:13.912Z,83093.31
2023-08-09T15:49:51.454Z,83086.72
2023-08-09T15:52:41.557Z,83094.66
2023-08-09T15:55:18.058Z,83086.72
2023-08-09T16:00:55.959Z,83093.31
2023-08-09T16:03:44.732Z,83089.09
2023-08-09T16:06:18.292Z,83087.19
2023-08-09T16:08:58.049Z,83085.88
2023-08-09T16:11:32.848Z,83087.84
2023-08-09T16:14:23.031Z,83089.88
2023-08-09T16:17:08.977Z,83094.53
2023-08-09T16:19:42.916Z,83099.81
2023-08-09T16:22:16.799Z,83097.81
2023-08-09T16:24:53.941Z,83093.09
2023-08-09T16:27:50.090Z,83089.09
2023-08-09T16:30:32.339Z,83095.78
2023-08-09T16:33:19.136Z,83087.78
2023-08-09T16:35:52.302Z,83094.94
2023-08-09T16:38:25.640Z,83090.19
2023-08-09T16:41:12.931Z,83088.81
2023-08-09T16:43:54.339Z,83077.41
2023-08-09T16:46:32.110Z,83080.56
2023-08-09T16:49:11.372Z,83078.44
2023-08-09T16:51:44.784Z,83075.88
2023-08-09T16:54:18.635Z,83080.03
2023-08-09T16:56:58.198Z,83079.25
2023-08-09T16:59:32.911Z,83079.34
2023-08-09T17:02:08.021Z,83081.31
2023-08-09T17:04:44.568Z,83074.09
2023-08-09T17:07:21.867Z,83081.53
2023-08-09T17:10:04.488Z,83076.19
2023-08-09T17:12:40.285Z,83071.53
2023-08-09T17:15:17.166Z,83064.09
2023-08-09T17:20:34.114Z,83065.38
2023-08-09T17:23:09.402Z,83068.06
2023-08-09T17:25:42.850Z,83060.06
2023-08-09T17:28:16.800Z,83068.09
2023-08-09T17:30:55.854Z,83062.06
2023-08-09T17:33:34.831Z,83065.59
2023-08-09T17:36:13.836Z,83071.63
2023-08-09T17:38:54.524Z,83076.84
2023-08-09T17:41:28.295Z,83072.78
2023-08-09T17:44:03.893Z,83068.63
2023-08-09T17:46:40.571Z,83067.22
2023-08-09T17:49:25.896Z,83071.97
2023-08-09T17:52:02.742Z,83068.47
2023-08-09T17:54:36.381Z,83069.78
2023-08-09T17:57:13.621Z,83064.22
2023-08-09T17:59:47.346Z,83067.50
2023-08-09T18:02:27.602Z,83070.22
2023-08-09T18:05:11.443Z,83068.25
2023-08-09T18:07:48.274Z,83065.56
2023-08-09T18:10:22.383Z,83076.25
2023-08-09T18:12:58.848Z,83075.00
2023-08-09T18:15:40.402Z,83076.38
2023-08-09T18:18:16.308Z,83071.72
2023-08-09T18:20:51.407Z,83075.03
2023-08-09T18:23:24.898Z,83079.50
2023-08-09T18:25:58.747Z,83080.16
2023-08-09T18:28:34.709Z,83081.59
2023-08-09T18:31:08.835Z,83084.16
2023-08-09T18:33:44.805Z,83078.19
2023-08-09T18:36:18.227Z,83078.72
2023-08-09T18:38:52.143Z,83076.56
2023-08-09T18:41:25.650Z,83080.44
2023-08-09T18:43:59.363Z,83085.06
2023-08-09T18:46:32.805Z,83082.31
2023-08-09T18:49:09.332Z,83087.06
2023-08-09T18:51:43.247Z,83085.16
2023-08-09T18:54:17.342Z,83086.41
2023-08-09T18:56:51.648Z,83081.66
2023-08-09T18:59:32.966Z,83086.41
2023-08-09T19:02:06.365Z,83087.84
2023-08-09T19:04:43.041Z,83081.97
2023-08-09T19:07:16.895Z,83095.88
2023-08-09T19:09:51.426Z,83091.06
2023-08-09T19:12:25.113Z,83097.13
2023-08-09T19:15:02.353Z,83089.19
2023-08-09T19:17:37.253Z,83088.31
2023-08-09T19:20:18.408Z,83087.44
2023-08-09T19:22:52.625Z,83100.84
2023-08-09T19:25:31.496Z,83098.34
2023-08-09T19:28:05.371Z,83102.31
2023-08-09T19:30:39.479Z,83103.06
2023-08-09T19:33:13.073Z,83109.19
2023-08-09T19:35:49.706Z,83107.28
2023-08-09T19:38:23.974Z,83111.34
2023-08-09T19:40:57.839Z,83114.09
2023-08-09T19:43:31.221Z,83117.22
2023-08-09T19:46:04.892Z,83124.69
2023-08-09T19:48:38.280Z,83114.75
2023-08-09T19:51:14.924Z,83118.78
2023-08-09T19:53:48.918Z,83122.84
2023-08-09T19:56:22.315Z,83118.88
2023-08-09T19:58:56.083Z,83120.78
2023-08-09T20:01:29.693Z,83128.75
2023-08-09T20:04:03.778Z,83125.28
2023-08-09T20:06:43.532Z,83128.63
2023-08-09T20:09:17.486Z,83122.63
2023-08-09T20:11:51.171Z,83122.66
2023-08-09T20:14:24.868Z,83119.88
2023-08-09T20:16:58.294Z,83120.63
2023-08-09T20:19:31.837Z,83120.47
2023-08-09T20:22:08.932Z,83131.13
2023-08-09T20:24:43.848Z,83126.53
2023-08-09T20:27:17.794Z,83130.63
2023-08-09T20:29:51.316Z,83136.38
2023-08-09T20:32:24.405Z,83141.69
2023-08-09T20:34:58.231Z,83130.25
2023-08-09T20:37:35.688Z,83143.06
2023-08-09T20:40:12.527Z,83139.69
2023-08-09T20:42:45.639Z,83139.09
2023-08-09T20:45:19.648Z,83145.09
2023-08-09T20:47:53.061Z,83138.41
2023-08-09T20:50:26.356Z,83144.44
2023-08-09T20:53:02.835Z,83140.44
2023-08-09T20:55:36.398Z,83145.56
2023-08-09T20:58:10.176Z,83147.47
2023-08-09T21:00:43.508Z,83145.63
2023-08-09T21:03:16.983Z,83148.88
2023-08-09T21:05:50.159Z,83151.59
2023-08-09T21:08:27.287Z,83151.44
2023-08-09T21:11:01.284Z,83154.22
2023-08-09T21:13:34.901Z,83146.88
2023-08-09T21:16:09.098Z,83151.75
2023-08-09T21:21:16.311Z,83154.44
2023-08-09T21:24:28.399Z,83157.97
2023-08-09T21:26:51.291Z,83164.16
2023-08-09T21:29:31.796Z,83151.44
2023-08-09T21:32:06.803Z,83154.03
2023-08-09T21:34:40.830Z,83140.66
2023-08-09T21:37:14.156Z,83154.16
2023-08-09T21:39:50.742Z,83152.22
2023-08-09T21:42:24.163Z,83152.06
2023-08-09T21:45:00.984Z,83155.47
2023-08-09T21:47:34.664Z,83140.19
2023-08-09T21:50:08.440Z,83152.22
2023-08-09T21:52:42.066Z,83153.16
2023-08-09T21:55:19.188Z,83155.56
2023-08-09T21:57:52.966Z,83163.22
2023-08-09T22:00:27.683Z,83158.97
2023-08-09T22:03:01.407Z,83159.53
2023-08-09T22:05:35.045Z,83171.56
2023-08-09T22:08:09.748Z,83173.66
2023-08-09T22:10:46.437Z,83176.81
2023-08-09T22:13:21.393Z,83172.09
2023-08-09T22:15:56.347Z,83180.13
2023-08-09T22:18:30.215Z,83181.81
2023-08-09T22:21:03.651Z,83179.63
2023-08-09T22:23:37.193Z,83197.72
2023-08-09T22:26:13.336Z,83189.22
2023-08-09T22:28:46.779Z,83201.84
2023-08-09T22:31:20.111Z,83195.81
2023-08-09T22:33:56.313Z,83192.59
2023-08-09T22:36:29.356Z,83197.44
2023-08-09T22:39:05.114Z,83203.25
2023-08-09T22:41:41.400Z,83214.03
2023-08-09T22:44:14.874Z,83216.88
2023-08-09T22:46:48.311Z,83211.00
2023-08-09T22:49:21.900Z,83204.97
2023-08-09T22:51:55.392Z,83204.00
2023-08-09T22:54:29.322Z,83202.75
2023-08-09T22:57:07.388Z,83211.50
2023-08-09T22:59:41.981Z,83222.78
2023-08-09T23:02:16.383Z,83220.13
2023-08-09T23:04:53.101Z,83226.13
2023-08-09T23:07:26.757Z,83222.16
2023-08-09T23:10:01.852Z,83233.41
2023-08-09T23:12:38.398Z,83235.97
2023-08-09T23:15:13.626Z,83239.31
2023-08-09T23:17:47.547Z,83239.38
2023-08-09T23:20:21.073Z,83246.13
2023-08-09T23:22:54.561Z,83252.59
2023-08-09T23:25:29.256Z,83245.59
2023-08-09T23:28:07.474Z,83251.19
2023-08-09T23:30:40.612Z,83248.28
2023-08-09T23:33:15.193Z,83247.50
2023-08-09T23:35:48.335Z,83249.38
2023-08-09T23:38:23.009Z,83261.38
2023-08-09T23:41:07.702Z,83264.41
2023-08-09T23:43:44.585Z,83270.88
2023-08-09T23:46:19.586Z,83278.50
2023-08-09T23:48:53.647Z,83277.50
2023-08-09T23:51:26.733Z,83276.34
2023-08-09T23:54:03.683Z,83273.91
2023-08-09T23:56:39.775Z,83275.28
2023-08-09T23:59:16.548Z,83280.56
